Time;durP1;ratioP1;P1;durP2;ratioP2;P2;SDS_P1;SDS_P2;PMS_P1;PMS_P2;Temp;Humidity;BMP_temperature;BMP_pressure;BME280_temperature;BME280_humidity;BME280_pressure;Samples;Min_cycle;Max_cycle;Signal;HPM_P1;HPM_P2
2023/05/06 00:00:31;;;;;;;5.20;4.80;;;21.80;65.00;;;;;;4933400;29;20231;-49
2023/05/06 00:02:59;;;;;;;6.77;6.17;;;21.80;65.00;;;;;;4933872;29;20219;-49
2023/05/06 00:05:25;;;;;;;5.17;4.83;;;21.70;65.20;;;;;;4929998;29;20256;-49
2023/05/06 00:07:51;;;;;;;8.03;5.70;;;21.70;65.30;;;;;;4928173;29;20444;-49
2023/05/06 00:10:17;;;;;;;5.37;4.97;;;21.70;65.10;;;;;;4920955;29;22239;-50
2023/05/06 00:12:42;;;;;;;7.67;5.40;;;21.70;65.10;;;;;;4932587;29;20681;-49
2023/05/06 00:15:08;;;;;;;5.90;5.40;;;21.60;65.10;;;;;;4923265;29;20194;-48
2023/05/06 00:17:34;;;;;;;6.40;5.80;;;21.60;65.80;;;;;;4931093;29;20236;-48
2023/05/06 00:19:59;;;;;;;6.57;6.07;;;21.60;66.00;;;;;;4918267;29;20303;-48
2023/05/06 00:22:25;;;;;;;5.67;5.17;;;21.70;65.90;;;;;;4935354;29;20200;-49
2023/05/06 00:24:50;;;;;;;5.50;5.07;;;21.70;65.40;;;;;;4917022;29;20286;-49
2023/05/06 00:27:16;;;;;;;6.60;6.00;;;21.70;65.40;;;;;;4922960;29;20240;-48
2023/05/06 00:29:41;;;;;;;6.37;5.90;;;21.70;65.10;;;;;;4925663;29;20274;-50
2023/05/06 00:32:07;;;;;;;6.03;5.63;;;21.70;64.90;;;;;;4935910;29;20212;-48
2023/05/06 00:34:33;;;;;;;7.80;7.10;;;21.70;64.80;;;;;;4915031;29;20733;-48
2023/05/06 00:36:58;;;;;;;6.90;6.00;;;21.70;64.80;;;;;;4916815;29;20208;-48
2023/05/06 00:39:24;;;;;;;6.23;5.73;;;21.80;64.80;;;;;;4918491;29;20264;-49
2023/05/06 00:41:50;;;;;;;6.07;5.50;;;21.80;64.80;;;;;;4923305;29;20197;-49
2023/05/06 00:44:15;;;;;;;6.10;5.60;;;21.80;64.70;;;;;;4929266;29;20429;-49
2023/05/06 00:46:42;;;;;;;5.83;5.33;;;21.80;64.30;;;;;;4929895;29;20320;-49
2023/05/06 00:49:11;;;;;;;7.17;5.67;;;21.80;64.20;;;;;;4920555;29;20642;-50
2023/05/06 00:51:37;;;;;;;6.13;5.53;;;21.80;64.20;;;;;;4933830;29;20859;-49
2023/05/06 00:54:03;;;;;;;7.33;6.73;;;21.90;63.80;;;;;;4929832;29;20444;-48
2023/05/06 00:56:29;;;;;;;8.20;6.30;;;21.80;63.40;;;;;;4929802;29;20646;-48
2023/05/06 00:58:55;;;;;;;6.83;6.07;;;21.80;63.50;;;;;;4924782;29;20481;-49
2023/05/06 01:01:23;;;;;;;8.13;5.93;;;21.80;63.40;;;;;;4924320;29;20327;-49
2023/05/06 01:03:50;;;;;;;6.20;5.73;;;21.80;63.60;;;;;;4931865;29;20239;-49
2023/05/06 01:06:43;;;;;;;7.93;6.00;;;21.80;63.70;;;;;;4920344;29;20460;-49
2023/05/06 01:09:09;;;;;;;7.40;6.70;;;21.80;64.10;;;;;;4925969;29;20581;-49
2023/05/06 01:11:52;;;;;;;6.77;6.17;;;21.70;63.90;;;;;;4935456;29;20517;-50
2023/05/06 01:14:44;;;;;;;6.23;5.70;;;21.80;63.70;;;;;;4929153;29;20492;-52
2023/05/06 01:17:11;;;;;;;5.30;4.80;;;21.70;63.30;;;;;;4930445;29;20919;-53
2023/05/06 01:19:47;;;;;;;7.10;4.93;;;21.80;63.90;;;;;;4931781;29;20738;-52
2023/05/06 01:22:14;;;;;;;4.90;4.47;;;21.70;62.60;;;;;;4921885;29;20977;-53
2023/05/06 01:24:42;;;;;;;4.50;4.20;;;21.60;62.30;;;;;;4927601;29;20449;-52
2023/05/06 01:27:09;;;;;;;5.60;5.10;;;21.60;62.30;;;;;;4918825;29;20984;-52
2023/05/06 01:29:37;;;;;;;4.00;3.60;;;21.60;62.20;;;;;;4904602;29;22121;-50
2023/05/06 01:32:11;;;;;;;4.03;3.40;;;21.50;61.80;;;;;;4921735;29;20465;-54
2023/05/06 01:34:44;;;;;;;4.20;3.80;;;21.50;62.70;;;;;;4925262;29;21280;-51
2023/05/06 01:37:21;;;;;;;4.73;3.90;;;21.50;61.90;;;;;;4917984;29;20456;-53
2023/05/06 01:39:47;;;;;;;4.50;4.10;;;21.60;61.90;;;;;;4928247;29;21266;-52
2023/05/06 01:42:14;;;;;;;4.77;4.37;;;21.60;61.70;;;;;;4923371;29;20551;-53
2023/05/06 01:44:42;;;;;;;3.87;3.57;;;21.60;61.30;;;;;;4916189;29;20452;-53
2023/05/06 01:47:09;;;;;;;4.20;3.67;;;21.60;60.90;;;;;;4915902;29;20448;-52
2023/05/06 01:49:37;;;;;;;4.60;4.20;;;21.60;60.90;;;;;;4924634;29;20444;-53
2023/05/06 01:52:03;;;;;;;6.33;4.80;;;21.60;60.80;;;;;;4927083;29;20429;-49
2023/05/06 01:54:29;;;;;;;6.40;4.60;;;21.60;60.90;;;;;;4921879;29;20436;-53
2023/05/06 01:56:54;;;;;;;5.53;5.03;;;21.60;61.30;;;;;;4932180;29;20189;-50
2023/05/06 01:59:20;;;;;;;5.50;5.10;;;21.60;61.60;;;;;;4934243;29;20363;-49
2023/05/06 02:01:45;;;;;;;6.23;5.70;;;21.50;62.10;;;;;;4934012;29;20196;-50
2023/05/06 02:04:11;;;;;;;6.57;5.67;;;21.50;62.50;;;;;;4932937;29;20247;-52
2023/05/06 02:06:36;;;;;;;6.47;5.27;;;21.50;62.90;;;;;;4918211;29;20217;-52
2023/05/06 02:09:02;;;;;;;5.27;4.83;;;21.50;62.70;;;;;;4923560;29;20206;-52
2023/05/06 02:11:28;;;;;;;5.33;4.83;;;21.40;62.90;;;;;;4919365;29;20356;-51
2023/05/06 02:13:54;;;;;;;5.43;4.93;;;21.40;62.80;;;;;;4914749;29;20516;-53
2023/05/06 02:16:20;;;;;;;5.90;5.40;;;21.40;63.30;;;;;;4920489;29;20240;-50
2023/05/06 02:18:46;;;;;;;6.20;5.60;;;21.40;63.40;;;;;;4933952;29;20656;-49
2023/05/06 02:21:12;;;;;;;5.70;5.30;;;21.40;63.50;;;;;;4929329;29;20444;-51
2023/05/06 02:23:37;;;;;;;7.90;4.93;;;21.40;63.50;;;;;;4924769;29;20617;-50
2023/05/06 02:26:03;;;;;;;5.07;4.57;;;21.40;63.50;;;;;;4928298;29;20569;-53
2023/05/06 02:28:29;;;;;;;5.27;4.83;;;21.40;63.80;;;;;;4931475;29;20191;-49
2023/05/06 02:30:57;;;;;;;6.90;5.50;;;21.40;63.50;;;;;;4933807;29;20200;-49
2023/05/06 02:33:23;;;;;;;10.10;6.47;;;21.40;63.30;;;;;;4933740;29;20569;-48
2023/05/06 02:35:50;;;;;;;6.00;5.50;;;21.40;63.10;;;;;;4933438;29;20442;-49
2023/05/06 02:38:15;;;;;;;6.47;5.93;;;21.40;62.70;;;;;;4933294;29;20240;-49
2023/05/06 02:40:41;;;;;;;5.63;5.23;;;21.40;62.80;;;;;;4929964;29;20528;-49
2023/05/06 02:43:07;;;;;;;5.87;5.37;;;21.30;62.80;;;;;;4931922;29;20208;-49
2023/05/06 02:45:32;;;;;;;10.10;6.07;;;21.20;63.30;;;;;;4926363;29;20194;-51
2023/05/06 02:47:58;;;;;;;8.83;5.90;;;21.20;63.80;;;;;;4928060;29;20232;-49
2023/05/06 02:50:23;;;;;;;7.07;5.70;;;21.10;63.80;;;;;;4929570;29;20569;-48
2023/05/06 02:52:49;;;;;;;5.90;5.30;;;21.10;64.00;;;;;;4931145;29;20652;-52
2023/05/06 02:55:14;;;;;;;6.63;5.37;;;21.10;64.20;;;;;;4932603;29;20193;-49
2023/05/06 02:57:40;;;;;;;5.27;4.77;;;21.10;64.10;;;;;;4933661;29;20625;-49
2023/05/06 03:00:06;;;;;;;6.03;5.03;;;21.10;64.00;;;;;;4918048;29;20663;-49
2023/05/06 03:02:32;;;;;;;8.60;5.53;;;21.10;63.80;;;;;;4921819;29;20227;-49
2023/05/06 03:04:57;;;;;;;5.73;5.03;;;21.10;63.70;;;;;;4933117;29;20455;-50
2023/05/06 03:07:23;;;;;;;10.27;5.80;;;21.00;63.50;;;;;;4933484;29;20279;-48
2023/05/06 03:09:49;;;;;;;6.67;4.80;;;21.10;63.60;;;;;;4933609;29;20716;-49
2023/05/06 03:12:15;;;;;;;5.70;5.20;;;21.10;63.60;;;;;;4932745;29;20260;-50
2023/05/06 03:14:41;;;;;;;6.30;5.70;;;21.10;63.40;;;;;;4933223;29;20433;-51
2023/05/06 03:17:06;;;;;;;8.00;5.93;;;21.20;63.30;;;;;;4924175;29;20249;-50
2023/05/06 03:19:32;;;;;;;5.50;5.00;;;21.20;62.90;;;;;;4928598;29;20225;-49
2023/05/06 03:21:57;;;;;;;6.50;5.80;;;21.10;63.00;;;;;;4913073;29;20239;-48
2023/05/06 03:24:23;;;;;;;6.37;5.10;;;21.10;63.50;;;;;;4914107;29;20201;-48
2023/05/06 03:26:49;;;;;;;5.30;4.20;;;21.10;63.50;;;;;;4914365;29;20198;-48
2023/05/06 03:29:14;;;;;;;7.73;5.80;;;21.10;63.50;;;;;;4914977;29;20209;-49
2023/05/06 03:31:40;;;;;;;6.17;5.33;;;21.10;63.00;;;;;;4924221;29;20433;-49
2023/05/06 03:34:06;;;;;;;5.87;5.30;;;21.00;63.10;;;;;;4916881;29;20205;-50
2023/05/06 03:36:32;;;;;;;4.60;4.27;;;21.00;63.90;;;;;;4921252;29;20192;-50
2023/05/06 03:38:57;;;;;;;5.50;5.00;;;21.10;63.60;;;;;;4933149;29;20224;-48
2023/05/06 03:41:23;;;;;;;6.33;5.73;;;21.10;63.00;;;;;;4933250;29;20240;-49
2023/05/06 03:43:49;;;;;;;5.87;5.37;;;21.20;62.40;;;;;;4930425;29;20570;-49
2023/05/06 03:46:15;;;;;;;5.47;4.97;;;21.30;62.20;;;;;;4914970;29;20492;-52
2023/05/06 03:48:40;;;;;;;5.53;4.97;;;21.30;61.60;;;;;;4916361;29;20327;-48
2023/05/06 03:51:06;;;;;;;4.37;3.97;;;21.40;61.30;;;;;;4923108;29;20263;-49
2023/05/06 03:53:31;;;;;;;5.50;5.00;;;21.30;61.00;;;;;;4926093;29;20189;-51
2023/05/06 03:55:57;;;;;;;5.63;5.13;;;21.30;60.80;;;;;;4925234;29;20200;-52
2023/05/06 03:58:23;;;;;;;8.10;5.70;;;21.30;60.80;;;;;;4926029;29;20200;-51
2023/05/06 04:00:49;;;;;;;6.87;5.80;;;21.30;60.50;;;;;;4930001;29;20225;-49
2023/05/06 04:03:14;;;;;;;5.67;5.17;;;21.20;60.60;;;;;;4935708;29;20436;-50
2023/05/06 04:05:40;;;;;;;6.23;5.63;;;21.20;60.70;;;;;;4928257;29;20200;-49
2023/05/06 04:08:06;;;;;;;6.73;6.20;;;21.20;60.60;;;;;;4921114;29;20198;-53
2023/05/06 04:10:31;;;;;;;7.03;6.33;;;21.10;60.50;;;;;;4924507;29;20228;-52
2023/05/06 04:12:57;;;;;;;8.23;5.43;;;21.10;60.70;;;;;;4936276;29;20189;-52
2023/05/06 04:15:22;;;;;;;6.73;6.13;;;21.10;61.00;;;;;;4935987;29;20209;-49
2023/05/06 04:17:48;;;;;;;7.13;5.73;;;21.00;60.70;;;;;;4922320;29;20245;-49
2023/05/06 04:20:14;;;;;;;5.33;4.93;;;21.00;60.80;;;;;;4928988;29;20235;-51
2023/05/06 04:22:40;;;;;;;6.30;5.13;;;21.00;60.70;;;;;;4921648;29;20197;-51
2023/05/06 04:25:07;;;;;;;5.03;4.63;;;21.00;60.50;;;;;;4926700;29;20436;-49
2023/05/06 04:27:32;;;;;;;8.10;6.07;;;21.10;60.60;;;;;;4929232;29;20280;-49
2023/05/06 04:29:58;;;;;;;7.00;6.20;;;21.10;60.60;;;;;;4935200;29;20511;-50
2023/05/06 04:32:26;;;;;;;7.23;6.53;;;21.10;60.40;;;;;;4921680;29;20197;-49
2023/05/06 04:34:53;;;;;;;7.97;7.17;;;21.10;60.60;;;;;;4931981;29;20295;-51
2023/05/06 04:37:19;;;;;;;7.57;6.87;;;21.20;60.40;;;;;;4934939;29;20425;-50
2023/05/06 04:39:47;;;;;;;15.17;7.80;;;21.20;60.50;;;;;;4929335;29;20504;-49
2023/05/06 04:42:13;;;;;;;9.40;6.50;;;21.20;60.50;;;;;;4921077;29;20433;-49
2023/05/06 04:44:40;;;;;;;5.87;5.40;;;21.20;59.80;;;;;;4923459;29;20435;-49
2023/05/06 04:47:06;;;;;;;6.07;5.50;;;21.10;60.00;;;;;;4935955;29;20436;-49
2023/05/06 04:49:31;;;;;;;6.10;5.57;;;21.00;60.50;;;;;;4935817;29;20436;-50
2023/05/06 04:51:57;;;;;;;6.57;6.07;;;21.00;60.70;;;;;;4935878;29;20243;-49
2023/05/06 04:54:22;;;;;;;9.03;6.23;;;21.00;60.60;;;;;;4934279;29;20201;-48
2023/05/06 04:56:48;;;;;;;8.57;6.57;;;20.90;60.90;;;;;;4921266;29;20221;-51
2023/05/06 04:59:14;;;;;;;7.57;6.17;;;20.90;61.20;;;;;;4934156;29;20236;-49
2023/05/06 05:01:39;;;;;;;6.80;6.30;;;20.90;61.20;;;;;;4935205;29;20200;-49
2023/05/06 05:04:05;;;;;;;5.27;4.87;;;21.00;61.10;;;;;;4929109;29;20319;-48
2023/05/06 05:06:30;;;;;;;5.93;5.43;;;21.00;61.10;;;;;;4925183;29;20188;-52
2023/05/06 05:08:56;;;;;;;5.73;5.10;;;20.90;61.00;;;;;;4928005;29;20200;-49
2023/05/06 05:11:22;;;;;;;5.30;4.90;;;21.00;61.20;;;;;;4922867;29;20585;-49
2023/05/06 05:13:47;;;;;;;4.73;4.23;;;20.90;60.80;;;;;;4926456;29;20279;-49
2023/05/06 05:16:13;;;;;;;4.90;4.60;;;20.80;61.80;;;;;;4921433;29;20245;-51
2023/05/06 05:18:38;;;;;;;6.13;4.93;;;20.90;61.90;;;;;;4925909;29;20252;-49
2023/05/06 05:21:04;;;;;;;5.20;4.57;;;20.90;61.60;;;;;;4934927;29;20646;-49
2023/05/06 05:23:30;;;;;;;5.13;4.70;;;21.00;61.40;;;;;;4934702;29;20196;-51
2023/05/06 05:25:55;;;;;;;6.20;3.97;;;21.00;61.20;;;;;;4933353;29;20193;-52
2023/05/06 05:28:21;;;;;;;5.53;4.70;;;21.00;61.20;;;;;;4927918;29;20927;-50
2023/05/06 05:30:46;;;;;;;4.93;4.30;;;21.00;61.40;;;;;;4921127;29;20279;-50
2023/05/06 05:33:12;;;;;;;4.37;4.00;;;20.80;61.40;;;;;;4926340;29;20192;-51
2023/05/06 05:35:37;;;;;;;5.60;4.90;;;20.80;61.60;;;;;;4924418;29;20201;-50
2023/05/06 05:38:03;;;;;;;5.67;5.03;;;20.70;61.80;;;;;;4922392;29;20205;-50
2023/05/06 05:40:29;;;;;;;6.27;4.90;;;20.70;62.00;;;;;;4928224;29;20282;-50
2023/05/06 05:42:54;;;;;;;5.20;4.60;;;20.80;62.10;;;;;;4916248;29;20203;-50
2023/05/06 05:45:20;;;;;;;6.03;5.43;;;20.90;62.00;;;;;;4926199;29;20339;-51
2023/05/06 05:47:46;;;;;;;5.00;4.60;;;21.00;61.80;;;;;;4924149;29;20208;-50
2023/05/06 05:50:11;;;;;;;5.23;4.73;;;21.10;61.80;;;;;;4929283;29;20214;-52
2023/05/06 05:52:37;;;;;;;8.13;5.20;;;21.10;62.10;;;;;;4927611;29;20213;-49
2023/05/06 05:55:02;;;;;;;6.00;4.50;;;21.00;62.20;;;;;;4928476;29;20189;-53
2023/05/06 05:57:28;;;;;;;4.87;3.93;;;21.10;62.50;;;;;;4926338;29;20656;-53
2023/05/06 05:59:53;;;;;;;5.33;4.93;;;21.10;62.60;;;;;;4920982;29;20236;-49
2023/05/06 06:02:19;;;;;;;5.30;4.80;;;21.20;62.70;;;;;;4922968;29;20204;-52
2023/05/06 06:04:45;;;;;;;5.30;4.83;;;21.30;62.50;;;;;;4920267;29;20204;-53
2023/05/06 06:07:10;;;;;;;7.80;5.00;;;21.40;62.50;;;;;;4927937;29;20200;-49
2023/05/06 06:09:36;;;;;;;4.07;3.77;;;21.50;62.70;;;;;;4914883;29;20209;-49
2023/05/06 06:12:02;;;;;;;4.67;4.23;;;21.50;63.00;;;;;;4921931;29;20276;-49
2023/05/06 06:14:27;;;;;;;5.27;4.87;;;21.60;62.90;;;;;;4925348;29;20283;-52
2023/05/06 06:16:53;;;;;;;4.90;4.23;;;21.60;62.60;;;;;;4913353;29;20328;-48
2023/05/06 06:19:18;;;;;;;4.07;3.77;;;21.70;62.60;;;;;;4927444;29;20240;-51
2023/05/06 06:21:44;;;;;;;4.57;4.20;;;21.80;62.80;;;;;;4923619;29;20301;-50
2023/05/06 06:24:09;;;;;;;4.13;3.93;;;21.80;62.50;;;;;;4922555;29;20193;-49
2023/05/06 06:26:35;;;;;;;4.60;4.00;;;21.50;61.30;;;;;;4922623;29;20608;-50
2023/05/06 06:29:00;;;;;;;5.17;4.03;;;21.40;62.00;;;;;;4922345;29;20188;-50
2023/05/06 06:31:28;;;;;;;5.50;4.27;;;21.70;62.00;;;;;;4923240;29;20202;-48
2023/05/06 06:33:54;;;;;;;4.57;4.17;;;21.30;61.40;;;;;;4921827;29;20215;-49
2023/05/06 06:36:20;;;;;;;5.20;4.20;;;21.40;62.00;;;;;;4926361;29;20436;-51
2023/05/06 06:38:45;;;;;;;7.00;4.40;;;21.60;61.50;;;;;;4918119;29;20511;-50
2023/05/06 06:41:11;;;;;;;5.07;4.63;;;21.80;60.90;;;;;;4926721;29;20947;-53
2023/05/06 06:43:36;;;;;;;7.13;4.60;;;22.00;60.80;;;;;;4926046;29;20204;-53
2023/05/06 06:46:02;;;;;;;4.20;3.80;;;22.10;59.60;;;;;;4924096;29;20195;-51
2023/05/06 06:48:28;;;;;;;6.53;4.23;;;22.10;57.80;;;;;;4932371;29;20197;-48
2023/05/06 06:50:53;;;;;;;4.47;4.07;;;22.20;58.40;;;;;;4932576;29;20247;-50
2023/05/06 06:53:19;;;;;;;5.40;3.90;;;22.30;58.40;;;;;;4927354;29;20193;-49
2023/05/06 06:55:45;;;;;;;6.60;4.10;;;22.40;58.00;;;;;;4914664;29;20193;-52
2023/05/06 06:58:11;;;;;;;5.13;4.50;;;22.50;57.70;;;;;;4919745;29;20463;-53
2023/05/06 07:00:36;;;;;;;5.13;4.60;;;22.40;57.80;;;;;;4915539;29;20240;-49
2023/05/06 07:03:02;;;;;;;7.30;4.20;;;22.40;57.90;;;;;;4924269;29;20189;-51
2023/05/06 07:05:28;;;;;;;4.37;4.00;;;22.40;57.80;;;;;;4930785;29;20197;-49
2023/05/06 07:07:54;;;;;;;4.60;3.70;;;22.50;57.40;;;;;;4919965;29;20272;-50
2023/05/06 07:10:20;;;;;;;4.70;4.30;;;22.50;57.60;;;;;;4914545;29;20224;-52
2023/05/06 07:12:46;;;;;;;4.40;4.00;;;22.50;57.70;;;;;;4918441;29;20540;-49
2023/05/06 07:15:11;;;;;;;5.03;4.20;;;22.50;57.80;;;;;;4921201;29;20493;-49
2023/05/06 07:17:37;;;;;;;4.73;4.43;;;22.60;57.80;;;;;;4927528;29;20240;-48
2023/05/06 07:20:03;;;;;;;5.27;3.87;;;22.60;58.50;;;;;;4926774;29;20246;-52
2023/05/06 07:22:28;;;;;;;5.30;4.70;;;22.80;58.60;;;;;;4918209;29;20559;-48
2023/05/06 07:24:54;;;;;;;5.57;5.07;;;22.90;57.50;;;;;;4920648;29;20201;-51
2023/05/06 07:27:20;;;;;;;7.00;6.30;;;23.00;57.90;;;;;;4919617;29;20229;-49
2023/05/06 07:29:45;;;;;;;7.10;6.50;;;23.00;58.40;;;;;;4914893;29;20197;-51
2023/05/06 07:32:11;;;;;;;6.50;5.97;;;23.10;57.50;;;;;;4925967;29;20220;-48
2023/05/06 07:34:37;;;;;;;6.87;6.30;;;23.20;56.10;;;;;;4932002;29;20239;-49
2023/05/06 07:37:03;;;;;;;6.90;6.30;;;23.30;56.50;;;;;;4923023;29;20228;-48
2023/05/06 07:39:29;;;;;;;6.33;5.73;;;23.40;55.90;;;;;;4917564;29;20568;-51
2023/05/06 07:41:55;;;;;;;5.77;5.37;;;23.50;56.00;;;;;;4927306;29;20204;-49
2023/05/06 07:44:20;;;;;;;7.43;6.83;;;23.50;55.80;;;;;;4929922;29;20426;-51
2023/05/06 07:46:47;;;;;;;7.63;6.17;;;23.60;56.30;;;;;;4926924;29;20224;-50
2023/05/06 07:49:12;;;;;;;6.90;6.30;;;23.80;55.40;;;;;;4918186;29;20201;-52
2023/05/06 07:51:38;;;;;;;6.70;6.00;;;24.10;55.50;;;;;;4921132;29;20456;-48
2023/05/06 07:54:04;;;;;;;5.40;5.00;;;24.30;54.70;;;;;;4921984;29;20235;-52
2023/05/06 07:56:29;;;;;;;6.77;5.40;;;24.50;55.50;;;;;;4925712;29;20185;-49
2023/05/06 07:58:55;;;;;;;6.17;5.77;;;24.70;54.20;;;;;;4920482;29;20232;-52
2023/05/06 08:01:21;;;;;;;5.50;5.10;;;24.90;54.10;;;;;;4917441;29;20200;-52
2023/05/06 08:03:46;;;;;;;5.10;4.77;;;25.00;53.90;;;;;;4920305;29;20204;-50
2023/05/06 08:06:12;;;;;;;5.63;5.13;;;25.00;52.80;;;;;;4920153;29;20212;-49
2023/05/06 08:08:38;;;;;;;5.10;4.70;;;25.10;52.00;;;;;;4927442;29;20316;-51
2023/05/06 08:11:03;;;;;;;5.33;4.90;;;25.10;51.30;;;;;;4917351;29;20249;-49
2023/05/06 08:13:29;;;;;;;5.43;3.73;;;25.00;51.20;;;;;;4922534;29;20283;-51
2023/05/06 08:15:55;;;;;;;5.23;4.40;;;25.00;49.80;;;;;;4923168;29;20202;-51
2023/05/06 08:18:21;;;;;;;5.20;4.80;;;24.90;52.10;;;;;;4931118;29;20199;-49
2023/05/06 08:20:46;;;;;;;5.50;5.10;;;24.90;51.90;;;;;;4923659;29;20932;-52
2023/05/06 08:23:12;;;;;;;4.97;4.67;;;25.10;52.30;;;;;;4918649;29;20212;-49
2023/05/06 08:25:37;;;;;;;10.47;4.23;;;25.20;51.30;;;;;;4923354;29;20216;-49
2023/05/06 08:28:03;;;;;;;4.60;4.30;;;25.20;51.10;;;;;;4918861;29;20202;-49
2023/05/06 08:30:29;;;;;;;4.60;4.27;;;25.20;50.70;;;;;;4923383;29;20208;-49
2023/05/06 08:32:55;;;;;;;5.10;4.50;;;25.40;51.40;;;;;;4916789;29;20197;-49
2023/05/06 08:35:20;;;;;;;4.93;3.90;;;25.40;49.30;;;;;;4921166;29;20201;-51
2023/05/06 08:37:46;;;;;;;3.50;3.20;;;25.20;49.60;;;;;;4923804;29;20227;-51
2023/05/06 08:40:20;;;;;;;3.73;3.47;;;25.30;48.70;;;;;;4930036;29;20692;-53
2023/05/06 08:42:47;;;;;;;2.70;2.47;;;25.40;48.00;;;;;;4927960;29;20558;-52
2023/05/06 08:45:16;;;;;;;2.50;2.30;;;25.50;47.20;;;;;;4933537;29;20443;-49
2023/05/06 08:47:42;;;;;;;2.90;2.70;;;25.70;46.50;;;;;;4930714;29;20453;-53
2023/05/06 08:50:09;;;;;;;2.47;2.17;;;25.70;46.50;;;;;;4924229;29;20512;-55
2023/05/06 08:52:36;;;;;;;3.10;2.90;;;25.80;46.70;;;;;;4925093;29;20339;-52
2023/05/06 08:55:04;;;;;;;3.23;2.93;;;25.90;46.20;;;;;;4924459;29;20496;-56
2023/05/06 08:57:33;;;;;;;3.00;2.70;;;25.90;46.40;;;;;;4921077;29;20441;-54
2023/05/06 08:59:59;;;;;;;4.10;3.40;;;25.90;46.50;;;;;;4921940;29;20488;-56
2023/05/06 09:02:25;;;;;;;3.50;2.80;;;26.10;46.40;;;;;;4927064;29;20512;-53
2023/05/06 09:04:52;;;;;;;3.10;2.80;;;26.10;45.30;;;;;;4923915;29;21143;-56
2023/05/06 09:07:21;;;;;;;3.10;2.70;;;26.20;45.50;;;;;;4915335;29;20274;-54
2023/05/06 09:09:47;;;;;;;2.57;2.37;;;26.30;45.50;;;;;;4923064;29;20449;-55
2023/05/06 09:12:13;;;;;;;2.47;2.27;;;26.40;45.90;;;;;;4924698;29;20867;-52
2023/05/06 09:14:43;;;;;;;2.63;2.37;;;26.60;45.90;;;;;;4921656;29;20456;-54
2023/05/06 09:17:22;;;;;;;3.30;2.90;;;26.80;46.70;;;;;;4924968;29;20570;-55
2023/05/06 09:19:53;;;;;;;2.80;2.60;;;27.10;46.30;;;;;;4928659;29;20563;-53
2023/05/06 09:22:39;;;;;;;4.00;3.10;;;27.20;44.90;;;;;;4929900;29;20485;-54
2023/05/06 09:25:05;;;;;;;3.80;2.20;;;27.30;44.50;;;;;;4924660;29;20460;-55
2023/05/06 09:27:33;;;;;;;2.83;2.23;;;27.30;42.80;;;;;;4922560;29;20528;-55
2023/05/06 09:30:04;;;;;;;2.90;2.23;;;27.50;44.20;;;;;;4928698;29;20445;-55
2023/05/06 09:32:30;;;;;;;2.47;2.27;;;27.70;43.20;;;;;;4929661;29;20955;-55
2023/05/06 09:34:56;;;;;;;1.97;1.87;;;27.80;42.70;;;;;;4928709;29;20447;-55
2023/05/06 09:37:25;;;;;;;2.30;1.90;;;27.90;42.00;;;;;;4921903;29;20444;-56
2023/05/06 09:39:57;;;;;;;2.80;2.40;;;27.90;40.90;;;;;;4925763;29;21014;-54
2023/05/06 09:42:25;;;;;;;2.40;2.20;;;27.80;40.40;;;;;;4929851;29;20441;-55
2023/05/06 09:44:53;;;;;;;2.30;2.10;;;27.70;40.40;;;;;;4923596;29;20459;-53
2023/05/06 09:47:20;;;;;;;2.43;2.23;;;27.50;41.20;;;;;;4924197;29;20454;-54
2023/05/06 09:49:45;;;;;;;2.20;2.10;;;27.40;41.00;;;;;;4924092;29;20928;-54
2023/05/06 09:52:12;;;;;;;1.70;1.60;;;27.30;41.00;;;;;;4925401;29;20452;-55
2023/05/06 09:54:39;;;;;;;2.90;1.40;;;27.20;40.40;;;;;;4929500;29;20243;-54
2023/05/06 09:57:05;;;;;;;2.50;1.73;;;27.20;39.40;;;;;;4926570;29;20452;-53
2023/05/06 09:59:32;;;;;;;1.70;1.60;;;27.30;41.30;;;;;;4921455;29;21015;-55
2023/05/06 10:01:58;;;;;;;1.70;1.60;;;27.40;40.60;;;;;;4927838;29;20508;-54
2023/05/06 10:04:25;;;;;;;1.93;1.50;;;27.30;40.50;;;;;;4922930;29;20532;-54
2023/05/06 10:06:55;;;;;;;3.27;1.30;;;27.40;41.40;;;;;;4923280;29;20703;-55
2023/05/06 10:09:23;;;;;;;2.60;1.83;;;27.60;41.00;;;;;;4927946;29;20463;-55
2023/05/06 10:11:50;;;;;;;1.57;1.47;;;27.70;39.10;;;;;;4926091;29;20956;-55
2023/05/06 10:14:17;;;;;;;1.83;1.67;;;27.90;39.10;;;;;;4919750;29;20815;-55
2023/05/06 10:16:44;;;;;;;2.20;1.87;;;27.90;39.40;;;;;;4920807;29;20480;-55
2023/05/06 10:19:13;;;;;;;2.27;1.70;;;28.20;40.40;;;;;;4928567;29;20519;-55
2023/05/06 10:21:47;;;;;;;2.33;2.10;;;28.40;40.70;;;;;;4926426;29;20951;-55
2023/05/06 10:24:17;;;;;;;4.03;2.00;;;28.60;39.40;;;;;;4925858;29;20471;-55
2023/05/06 10:26:45;;;;;;;2.20;2.10;;;28.80;38.90;;;;;;4926573;29;20444;-56
2023/05/06 10:29:12;;;;;;;1.60;1.50;;;28.90;39.30;;;;;;4931032;29;20453;-56
2023/05/06 10:31:45;;;;;;;1.70;1.60;;;29.10;39.40;;;;;;4918566;29;20823;-55
2023/05/06 10:34:10;;;;;;;1.67;1.57;;;29.30;39.70;;;;;;4922927;29;20499;-56
2023/05/06 10:36:38;;;;;;;2.70;2.10;;;29.70;39.00;;;;;;4916161;29;20901;-56
2023/05/06 10:39:05;;;;;;;4.17;2.30;;;29.70;35.90;;;;;;4923305;29;20193;-56
2023/05/06 10:41:32;;;;;;;1.33;1.33;;;29.60;37.20;;;;;;4927531;29;22206;-56
2023/05/06 10:43:58;;;;;;;2.40;1.80;;;29.70;36.40;;;;;;4921627;29;20980;-57
2023/05/06 10:46:28;;;;;;;2.00;1.50;;;29.80;36.80;;;;;;4925805;29;21026;-55
2023/05/06 10:49:12;;;;;;;1.90;1.80;;;29.90;37.30;;;;;;4925953;29;20455;-56
2023/05/06 10:51:39;;;;;;;2.50;1.70;;;30.00;37.40;;;;;;4919604;29;20464;-56
2023/05/06 10:54:09;;;;;;;2.13;1.97;;;30.00;37.30;;;;;;4923531;29;20465;-56
2023/05/06 10:56:57;;;;;;;1.77;1.50;;;29.90;37.40;;;;;;4925958;29;20472;-56
2023/05/06 10:59:28;;;;;;;1.63;1.53;;;30.00;36.90;;;;;;4918234;29;20519;-56
2023/05/06 11:02:06;;;;;;;2.90;1.60;;;29.90;37.30;;;;;;4919416;29;20453;-56
2023/05/06 11:04:31;;;;;;;1.40;1.30;;;29.80;36.60;;;;;;4924089;29;20459;-56
2023/05/06 11:07:10;;;;;;;1.50;1.40;;;29.70;37.00;;;;;;4923165;29;20448;-56
2023/05/06 11:09:54;;;;;;;1.67;1.57;;;29.60;36.40;;;;;;4923753;29;21987;-56
2023/05/06 11:12:20;;;;;;;1.60;1.50;;;29.60;35.50;;;;;;4926568;29;21001;-56
2023/05/06 11:14:46;;;;;;;3.33;1.87;;;29.80;36.10;;;;;;4929057;29;20456;-56
2023/05/06 11:17:32;;;;;;;1.50;1.23;;;29.50;38.00;;;;;;4927196;29;20490;-56
2023/05/06 11:20:17;;;;;;;1.60;1.30;;;29.90;38.10;;;;;;4930580;29;20228;-56
2023/05/06 11:22:42;;;;;;;3.20;1.70;;;30.30;37.40;;;;;;4927363;29;20519;-56
2023/05/06 11:25:08;;;;;;;1.43;1.30;;;30.50;34.70;;;;;;4925753;29;20456;-57
2023/05/06 11:27:35;;;;;;;1.67;1.50;;;30.80;34.60;;;;;;4926915;29;20197;-58
2023/05/06 11:30:00;;;;;;;1.70;1.60;;;31.00;34.00;;;;;;4926145;29;20766;-56
2023/05/06 11:32:28;;;;;;;1.63;1.47;;;31.00;33.10;;;;;;4931504;29;20448;-56
2023/05/06 11:34:55;;;;;;;2.57;1.50;;;31.00;33.20;;;;;;4928139;29;20193;-56
2023/05/06 11:37:25;;;;;;;1.70;1.40;;;31.00;34.70;;;;;;4928638;29;20507;-55
2023/05/06 11:39:51;;;;;;;1.50;1.40;;;31.00;33.00;;;;;;4928300;29;20527;-57
2023/05/06 11:42:24;;;;;;;4.07;1.43;;;30.90;34.80;;;;;;4924513;29;20477;-56
2023/05/06 11:44:53;;;;;;;1.37;1.30;;;31.00;35.20;;;;;;4930350;29;20197;-57
2023/05/06 11:47:21;;;;;;;11.33;4.30;;;31.00;34.30;;;;;;4920783;29;20473;-56
2023/05/06 11:49:51;;;;;;;4.00;2.67;;;30.90;35.90;;;;;;4917618;29;20429;-57
2023/05/06 11:52:19;;;;;;;5.00;1.43;;;31.00;35.70;;;;;;4918849;29;20457;-57
2023/05/06 11:54:44;;;;;;;3.30;1.60;;;31.00;34.80;;;;;;4928358;29;20448;-54
2023/05/06 11:57:10;;;;;;;1.57;1.40;;;31.20;33.30;;;;;;4928054;29;20520;-55
2023/05/06 11:59:37;;;;;;;4.20;1.67;;;31.30;32.60;;;;;;4931672;29;20228;-55
2023/05/06 12:02:05;;;;;;;1.50;1.40;;;31.30;32.50;;;;;;4926279;29;20452;-55
2023/05/06 12:04:45;;;;;;;2.83;1.60;;;31.30;32.10;;;;;;4930845;29;20444;-55
2023/05/06 12:07:12;;;;;;;2.23;1.70;;;31.30;32.40;;;;;;4931807;29;20443;-55
2023/05/06 12:09:41;;;;;;;2.00;1.43;;;31.60;32.30;;;;;;4930940;29;20464;-55
2023/05/06 12:12:08;;;;;;;2.33;1.77;;;31.70;32.30;;;;;;4932477;29;21457;-55
2023/05/06 12:14:35;;;;;;;2.23;1.57;;;31.70;32.50;;;;;;4925549;29;20444;-55
2023/05/06 12:17:02;;;;;;;2.20;1.47;;;31.70;32.00;;;;;;4919484;29;20472;-54
2023/05/06 12:19:28;;;;;;;1.63;1.50;;;31.70;31.90;;;;;;4932345;29;20994;-55
2023/05/06 12:21:54;;;;;;;2.33;2.07;;;31.60;33.20;;;;;;4921122;29;20484;-55
2023/05/06 12:24:29;;;;;;;1.60;1.50;;;31.80;34.10;;;;;;4927139;29;20444;-57
2023/05/06 12:26:55;;;;;;;3.53;1.70;;;32.00;33.50;;;;;;4916145;29;20440;-55
2023/05/06 12:29:21;;;;;;;2.50;1.60;;;31.90;33.00;;;;;;4929068;29;20849;-56
2023/05/06 12:31:47;;;;;;;2.27;1.50;;;32.00;31.80;;;;;;4924568;29;20645;-55
2023/05/06 12:34:15;;;;;;;3.50;2.00;;;32.00;31.50;;;;;;4928253;29;20684;-55
2023/05/06 12:36:45;;;;;;;4.77;2.23;;;32.10;31.40;;;;;;4916610;29;20428;-56
2023/05/06 12:39:11;;;;;;;2.63;2.00;;;32.30;31.40;;;;;;4932878;29;20505;-55
2023/05/06 12:41:42;;;;;;;3.93;2.30;;;32.30;31.70;;;;;;4923953;29;20556;-55
2023/05/06 12:44:34;;;;;;;3.60;1.87;;;32.40;32.20;;;;;;4922680;29;20810;-55